createdAt,value
2022-11-19T00:02:02.834Z,100245.07
2022-11-19T00:04:34.604Z,100223.63
2022-11-19T00:07:06.594Z,100254.26
2022-11-19T00:09:38.301Z,100255.17
2022-11-19T00:12:30.033Z,100258.47
2022-11-19T00:15:04.228Z,100246.30
2022-11-19T00:17:36.161Z,100260.02
2022-11-19T00:20:10.145Z,100262.42
2022-11-19T00:22:42.759Z,100262.44
2022-11-19T00:25:15.235Z,100250.48
2022-11-19T00:27:47.538Z,100269.08
2022-11-19T00:30:40.884Z,100272.77
2022-11-19T00:33:11.842Z,100274.73
2022-11-19T00:35:44.381Z,100276.89
2022-11-19T00:38:16.146Z,100277.13
2022-11-19T00:40:47.937Z,100274.94
2022-11-19T00:43:37.591Z,100274.09
2022-11-19T00:46:09.698Z,100275.29
2022-11-19T00:48:42.528Z,100276.38
2022-11-19T00:51:14.828Z,100273.71
2022-11-19T00:53:46.858Z,100277.83
2022-11-19T00:56:21.140Z,100276.13
2022-11-19T00:58:53.825Z,100280.29
2022-11-19T01:01:27.298Z,100275.83
2022-11-19T01:03:59.208Z,100278.77
2022-11-19T01:06:33.643Z,100280.69
2022-11-19T01:09:06.116Z,100278.48
2022-11-19T01:11:40.135Z,100284.27
2022-11-19T01:14:12.257Z,100289.95
2022-11-19T01:16:44.258Z,100289.66
2022-11-19T01:19:17.208Z,100294.27
2022-11-19T01:21:49.619Z,100296.84
2022-11-19T01:24:22.407Z,100298.11
2022-11-19T01:26:54.245Z,100299.15
2022-11-19T01:29:26.159Z,100297.75
2022-11-19T01:31:57.959Z,100293.96
2022-11-19T01:34:32.205Z,100294.75
2022-11-19T01:37:04.475Z,100295.75
2022-11-19T01:39:36.366Z,100296.96
2022-11-19T01:42:33.362Z,100291.67
2022-11-19T01:45:09.347Z,100286.16
2022-11-19T01:47:41.826Z,100286.35
2022-11-19T01:50:14.773Z,100284.92
2022-11-19T01:52:47.059Z,100283.68
2022-11-19T01:55:20.078Z,100285.04
2022-11-19T01:57:56.410Z,100290.44
2022-11-19T02:00:28.854Z,100286.41
2022-11-19T02:03:04.362Z,100287.55
2022-11-19T02:05:37.210Z,100284.14
2022-11-19T02:08:30.918Z,100290.04
2022-11-19T02:11:15.565Z,100287.36
2022-11-19T02:13:58.303Z,100287.62
2022-11-19T02:16:39.452Z,100285.02
2022-11-19T02:19:23.526Z,100291.10
2022-11-19T02:22:05.238Z,100291.17
2022-11-19T02:24:52.355Z,100293.05
2022-11-19T02:27:47.105Z,100278.38
2022-11-19T02:30:21.586Z,100301.71
2022-11-19T02:32:56.218Z,100300.00
2022-11-19T02:35:36.795Z,100304.04
2022-11-19T02:38:16.900Z,100303.46
2022-11-19T02:40:53.358Z,100307.88
2022-11-19T02:43:34.217Z,100312.59
2022-11-19T02:46:11.343Z,100315.25
2022-11-19T02:48:48.314Z,100311.67
2022-11-19T02:51:21.898Z,100309.77
2022-11-19T02:53:55.384Z,100307.62
2022-11-19T02:56:51.537Z,100305.70
2022-11-19T02:59:44.811Z,100305.27
2022-11-19T03:02:37.468Z,100308.36
2022-11-19T03:05:14.713Z,100308.41
2022-11-19T03:07:47.312Z,100312.16
2022-11-19T03:10:24.108Z,100312.08
2022-11-19T03:12:59.934Z,100317.98
2022-11-19T03:16:02.901Z,100318.23
2022-11-19T03:18:39.486Z,100327.20
2022-11-19T03:21:22.656Z,100310.04
2022-11-19T03:24:00.192Z,100320.33
2022-11-19T03:26:37.959Z,100333.95
2022-11-19T03:29:13.749Z,100340.98
2022-11-19T03:32:00.500Z,100341.82
2022-11-19T03:34:34.511Z,100339.67
2022-11-19T03:37:09.425Z,100343.73
2022-11-19T03:39:44.010Z,100345.41
2022-11-19T03:42:21.703Z,100345.60
2022-11-19T03:44:57.502Z,100344.55
2022-11-19T03:47:35.608Z,100344.77
2022-11-19T03:50:13.446Z,100346.46
2022-11-19T03:52:46.532Z,100353.03
2022-11-19T03:55:19.005Z,100351.79
2022-11-19T03:57:51.799Z,100351.78
2022-11-19T04:00:23.580Z,100349.20
2022-11-19T04:02:55.596Z,100356.29
2022-11-19T04:05:27.613Z,100355.36
2022-11-19T04:07:59.679Z,100343.71
2022-11-19T04:10:31.352Z,100358.43
2022-11-19T04:13:03.412Z,100355.99
2022-11-19T04:15:35.360Z,100349.02
2022-11-19T04:18:09.234Z,100347.10
2022-11-19T04:20:43.396Z,100343.45
2022-11-19T04:23:15.160Z,100349.04
2022-11-19T04:25:49.431Z,100349.64
2022-11-19T04:28:19.938Z,100348.63
2022-11-19T04:30:51.690Z,100331.98
2022-11-19T04:33:23.739Z,100347.73
2022-11-19T04:35:55.537Z,100348.48
2022-11-19T04:38:27.614Z,100353.23
2022-11-19T04:40:59.717Z,100355.25
2022-11-19T04:43:31.811Z,100357.05
2022-11-19T04:46:04.304Z,100358.09
2022-11-19T04:48:36.277Z,100352.52
2022-11-19T04:51:08.086Z,100349.79
2022-11-19T04:53:39.898Z,100346.15
2022-11-19T04:56:12.161Z,100344.05
2022-11-19T04:58:45.246Z,100341.17
2022-11-19T05:01:20.510Z,100335.33
2022-11-19T05:03:52.585Z,100313.34
2022-11-19T05:06:24.542Z,100331.04
2022-11-19T05:08:56.513Z,100329.29
2022-11-19T05:11:28.395Z,100309.80
2022-11-19T05:14:02.675Z,100333.84
2022-11-19T05:16:34.515Z,100333.16
2022-11-19T05:19:06.658Z,100320.73
2022-11-19T05:21:38.360Z,100316.31
2022-11-19T05:24:10.983Z,100327.28
2022-11-19T05:26:42.918Z,100325.05
2022-11-19T05:29:14.927Z,100320.02
2022-11-19T05:31:49.068Z,100325.98
2022-11-19T05:34:23.814Z,100308.92
2022-11-19T05:36:55.510Z,100326.45
2022-11-19T05:39:27.690Z,100326.40
2022-11-19T05:41:59.937Z,100323.33
2022-11-19T05:44:31.858Z,100315.12
2022-11-19T05:47:04.353Z,100315.09
2022-11-19T05:49:36.316Z,100315.70
2022-11-19T05:52:08.394Z,100318.91
2022-11-19T05:54:40.144Z,100318.92
2022-11-19T05:57:12.486Z,100318.16
2022-11-19T05:59:47.802Z,100320.70
2022-11-19T06:02:21.278Z,100320.45
2022-11-19T06:04:54.035Z,100322.90
2022-11-19T06:07:26.840Z,100326.88
2022-11-19T06:10:01.611Z,100325.40
2022-11-19T06:12:35.021Z,100319.48
2022-11-19T06:15:11.867Z,100322.50
2022-11-19T06:17:48.218Z,100324.40
2022-11-19T06:20:22.904Z,100323.42
2022-11-19T06:22:58.397Z,100327.20
2022-11-19T06:25:31.803Z,100323.14
2022-11-19T06:28:04.820Z,100324.36
2022-11-19T06:30:38.335Z,100328.77
2022-11-19T06:33:10.282Z,100332.05
2022-11-19T06:35:43.273Z,100337.14
2022-11-19T06:38:19.138Z,100335.22
2022-11-19T06:40:51.431Z,100330.52
2022-11-19T06:43:26.803Z,100330.99
2022-11-19T06:46:02.008Z,100334.98
2022-11-19T06:48:38.615Z,100334.54
2022-11-19T06:51:11.744Z,100329.88
2022-11-19T06:53:46.394Z,100330.79
2022-11-19T06:56:23.088Z,100335.23
2022-11-19T06:59:00.416Z,100339.61
2022-11-19T07:01:33.164Z,100340.14
2022-11-19T07:04:05.416Z,100337.86
2022-11-19T07:06:37.544Z,100339.64
2022-11-19T07:09:11.296Z,100338.27
2022-11-19T07:11:43.484Z,100345.91
2022-11-19T07:14:16.251Z,100348.12
2022-11-19T07:16:48.517Z,100349.12
2022-11-19T07:19:20.788Z,100348.05
2022-11-19T07:21:53.243Z,100349.00
2022-11-19T07:24:25.510Z,100352.12
2022-11-19T07:26:57.338Z,100352.98
2022-11-19T07:29:29.425Z,100355.58
2022-11-19T07:32:02.582Z,100339.64
2022-11-19T07:34:34.416Z,100356.89
2022-11-19T07:37:06.598Z,100352.12
2022-11-19T07:39:38.308Z,100358.72
2022-11-19T07:42:28.736Z,100355.02
2022-11-19T07:45:04.558Z,100352.00
2022-11-19T07:47:37.457Z,100351.21
2022-11-19T07:50:10.864Z,100351.57
2022-11-19T07:52:43.262Z,100350.33
2022-11-19T07:55:15.960Z,100347.10
2022-11-19T07:57:47.740Z,100353.23
2022-11-19T08:00:21.662Z,100350.34
2022-11-19T08:02:53.985Z,100341.13
2022-11-19T08:05:28.332Z,100336.71
2022-11-19T08:08:00.710Z,100334.60
2022-11-19T08:10:32.904Z,100331.33
2022-11-19T08:13:04.977Z,100326.84
2022-11-19T08:15:38.261Z,100335.16
2022-11-19T08:18:17.303Z,100327.70
2022-11-19T08:20:49.451Z,100325.31
2022-11-19T08:23:22.167Z,100327.94
2022-11-19T08:25:54.478Z,100322.36
2022-11-19T08:28:26.780Z,100321.77
2022-11-19T08:31:06.497Z,100317.46
2022-11-19T08:33:39.023Z,100316.79
2022-11-19T08:36:12.963Z,100319.61
2022-11-19T08:38:44.935Z,100319.94
2022-11-19T08:41:35.291Z,100314.86
2022-11-19T08:44:07.431Z,100314.48
2022-11-19T08:46:39.199Z,100307.08
2022-11-19T08:49:13.449Z,100316.67
2022-11-19T08:51:45.313Z,100313.44
2022-11-19T08:54:17.657Z,100312.95
2022-11-19T08:56:49.785Z,100314.34
2022-11-19T08:59:23.338Z,100300.35
2022-11-19T09:01:57.087Z,100311.52
2022-11-19T09:04:30.549Z,100308.66
2022-11-19T09:07:02.868Z,100313.08
2022-11-19T09:09:35.425Z,100308.94
2022-11-19T09:12:08.928Z,100310.40
2022-11-19T09:14:41.036Z,100313.13
2022-11-19T09:17:13.568Z,100308.84
2022-11-19T09:19:45.399Z,100307.47
2022-11-19T09:22:17.351Z,100305.73
2022-11-19T09:24:49.345Z,100305.14
2022-11-19T09:27:21.722Z,100298.64
2022-11-19T09:29:53.966Z,100296.33
2022-11-19T09:32:25.989Z,100292.23
2022-11-19T09:34:58.071Z,100291.30
2022-11-19T09:37:31.604Z,100295.59
2022-11-19T09:40:03.429Z,100293.74
2022-11-19T09:42:42.392Z,100296.55
2022-11-19T09:45:26.832Z,100289.91
2022-11-19T09:48:22.300Z,100283.96
2022-11-19T09:50:55.038Z,100275.41
2022-11-19T09:53:30.347Z,100272.00
2022-11-19T09:56:02.726Z,100267.24
2022-11-19T09:58:39.212Z,100263.55
2022-11-19T10:01:14.718Z,100257.94
2022-11-19T10:03:51.311Z,100254.45
2022-11-19T10:06:29.104Z,100256.64
2022-11-19T10:09:19.699Z,100257.51
2022-11-19T10:12:06.167Z,100255.09
2022-11-19T10:14:56.525Z,100251.14
2022-11-19T10:17:45.346Z,100245.87
2022-11-19T10:20:40.954Z,100245.73
2022-11-19T10:23:17.904Z,100248.35
2022-11-19T10:25:55.165Z,100236.04
2022-11-19T10:28:30.687Z,100245.52
2022-11-19T10:31:09.884Z,100236.43
2022-11-19T10:33:47.987Z,100231.92
2022-11-19T10:36:25.359Z,100228.27
2022-11-19T10:39:03.912Z,100227.41
2022-11-19T10:41:45.545Z,100226.30
2022-11-19T10:44:41.395Z,100233.83
2022-11-19T10:47:19.293Z,100226.17
2022-11-19T10:49:55.365Z,100224.48
2022-11-19T10:52:32.197Z,100225.00
2022-11-19T10:55:19.032Z,100220.30
2022-11-19T10:57:53.936Z,100214.23
2022-11-19T11:00:26.048Z,100213.17
2022-11-19T11:03:03.094Z,100198.81
2022-11-19T11:06:03.387Z,100215.75
2022-11-19T11:08:47.992Z,100214.66
2022-11-19T11:11:26.098Z,100207.67
2022-11-19T11:14:19.587Z,100199.80
2022-11-19T11:16:51.743Z,100206.41
2022-11-19T11:19:23.904Z,100205.48
2022-11-19T11:21:56.538Z,100192.17
2022-11-19T11:24:36.194Z,100185.85
2022-11-19T11:27:28.214Z,100184.17
2022-11-19T11:30:20.681Z,100182.16
2022-11-19T11:32:53.011Z,100176.38
2022-11-19T11:35:37.839Z,100160.09
2022-11-19T11:38:10.610Z,100173.45
2022-11-19T11:40:42.694Z,100170.94
2022-11-19T11:43:20.309Z,100173.89
2022-11-19T11:45:59.545Z,100175.93
2022-11-19T11:48:36.038Z,100176.41
2022-11-19T11:51:08.638Z,100172.95
2022-11-19T11:53:43.086Z,100171.05
2022-11-19T11:56:22.338Z,100167.08
2022-11-19T11:58:54.398Z,100158.25
2022-11-19T12:01:26.139Z,100156.64
2022-11-19T12:04:00.015Z,100140.23
2022-11-19T12:06:39.608Z,100151.41
2022-11-19T12:09:17.542Z,100147.89
2022-11-19T12:11:56.500Z,100141.45
2022-11-19T12:14:33.626Z,100144.48
2022-11-19T12:17:30.577Z,100148.50
2022-11-19T12:20:31.049Z,100152.34
2022-11-19T12:23:17.916Z,100162.73
2022-11-19T12:26:01.905Z,100170.63
2022-11-19T12:28:55.226Z,100176.88
2022-11-19T12:31:39.388Z,100179.08
2022-11-19T12:34:42.723Z,100174.37
2022-11-19T12:37:28.840Z,100172.05
2022-11-19T12:40:16.608Z,100174.23
2022-11-19T12:43:03.836Z,100175.27
2022-11-19T12:45:47.944Z,100172.26
2022-11-19T12:48:39.817Z,100184.40
2022-11-19T12:51:22.386Z,100187.53
2022-11-19T12:54:09.937Z,100192.90
2022-11-19T12:56:55.669Z,100193.09
2022-11-19T12:59:43.746Z,100191.39
2022-11-19T13:02:24.359Z,100189.67
2022-11-19T13:05:02.720Z,100188.09
2022-11-19T13:07:41.510Z,100186.08
2022-11-19T13:10:23.176Z,100180.94
2022-11-19T13:12:59.376Z,100154.59
2022-11-19T13:15:35.060Z,100182.77
2022-11-19T13:18:15.164Z,100188.23
2022-11-19T13:20:52.884Z,100183.79
2022-11-19T13:23:28.819Z,100182.02
2022-11-19T13:26:04.377Z,100186.02
2022-11-19T13:28:43.789Z,100185.19
2022-11-19T13:31:24.001Z,100186.05
2022-11-19T13:34:08.751Z,100188.96
2022-11-19T13:36:48.348Z,100191.87
2022-11-19T13:39:28.533Z,100192.34
2022-11-19T13:42:22.643Z,100194.23
2022-11-19T13:44:55.403Z,100185.50
2022-11-19T13:47:35.058Z,100185.36
2022-11-19T13:50:16.087Z,100173.13
2022-11-19T13:52:59.383Z,100180.48
2022-11-19T13:55:40.961Z,100182.89
2022-11-19T13:58:24.795Z,100180.00
2022-11-19T14:01:16.516Z,100183.81
2022-11-19T14:04:09.679Z,100172.23
2022-11-19T14:07:09.904Z,100184.31
2022-11-19T14:10:04.564Z,100183.25
2022-11-19T14:12:59.136Z,100181.02
2022-11-19T14:16:02.307Z,100180.63
2022-11-19T14:18:57.271Z,100188.53
2022-11-19T14:22:09.847Z,100186.06
2022-11-19T14:25:18.391Z,100183.38
2022-11-19T14:27:51.152Z,100180.19
2022-11-19T14:31:04.537Z,100183.15
2022-11-19T14:34:00.335Z,100180.61
2022-11-19T14:36:50.834Z,100182.64
2022-11-19T14:39:28.121Z,100178.66
2022-11-19T14:42:18.724Z,100178.57
2022-11-19T14:45:21.177Z,100179.42
2022-11-19T14:48:06.165Z,100176.41
2022-11-19T14:50:38.552Z,100175.69
2022-11-19T14:53:23.023Z,100173.42
2022-11-19T14:55:57.845Z,100171.55
2022-11-19T14:58:28.881Z,100169.77
2022-11-19T15:01:18.037Z,100171.12
2022-11-19T15:03:58.984Z,100172.80
2022-11-19T15:06:37.170Z,100169.63
2022-11-19T15:09:13.828Z,100166.66
2022-11-19T15:12:04.483Z,100163.26
2022-11-19T15:15:05.106Z,100163.47
2022-11-19T15:17:37.472Z,100166.65
2022-11-19T15:20:29.784Z,100164.92
2022-11-19T15:23:14.583Z,100170.52
2022-11-19T15:26:00.468Z,100169.91
2022-11-19T15:28:46.237Z,100169.02
2022-11-19T15:31:32.500Z,100162.35
2022-11-19T15:34:22.351Z,100163.17
2022-11-19T15:37:00.367Z,100162.73
2022-11-19T15:39:39.497Z,100157.54
2022-11-19T15:42:21.157Z,100156.30
2022-11-19T15:44:58.706Z,100160.48
2022-11-19T15:47:41.345Z,100160.52
2022-11-19T15:50:22.239Z,100159.89
2022-11-19T15:53:18.729Z,100156.45
2022-11-19T15:55:57.992Z,100159.07
2022-11-19T15:58:37.106Z,100160.88
2022-11-19T16:01:15.163Z,100158.07
2022-11-19T16:03:51.178Z,100155.89
2022-11-19T16:06:26.315Z,100155.70
2022-11-19T16:09:01.666Z,100158.79
2022-11-19T16:11:56.214Z,100150.27
2022-11-19T16:14:48.495Z,100157.20
2022-11-19T16:17:41.643Z,100161.48
2022-11-19T16:20:23.720Z,100157.33
2022-11-19T16:23:03.066Z,100157.73
2022-11-19T16:25:38.157Z,100153.59
2022-11-19T16:28:14.837Z,100153.91
2022-11-19T16:30:49.929Z,100149.41
2022-11-19T16:33:25.063Z,100146.61
2022-11-19T16:36:14.155Z,100145.94
2022-11-19T16:38:50.949Z,100145.15
2022-11-19T16:41:43.880Z,100144.80
2022-11-19T16:44:22.629Z,100147.52
2022-11-19T16:46:55.586Z,100145.63
2022-11-19T16:49:41.674Z,100150.34
2022-11-19T16:52:38.921Z,100153.10
2022-11-19T16:55:52.621Z,100154.83
2022-11-19T16:58:29.089Z,100151.23
2022-11-19T17:01:02.542Z,100150.80
2022-11-19T17:03:41.504Z,100140.41
2022-11-19T17:06:25.174Z,100156.67
2022-11-19T17:09:01.925Z,100159.02
2022-11-19T17:12:09.480Z,100163.66
2022-11-19T17:14:54.380Z,100163.55
2022-11-19T17:17:43.429Z,100160.02
2022-11-19T17:21:00.231Z,100162.75
2022-11-19T17:23:38.204Z,100161.77
2022-11-19T17:26:17.850Z,100166.42
2022-11-19T17:28:54.561Z,100163.63
2022-11-19T17:31:28.450Z,100150.14
2022-11-19T17:34:12.218Z,100164.86
2022-11-19T17:36:45.191Z,100168.55
2022-11-19T17:39:22.525Z,100168.35
2022-11-19T17:42:17.569Z,100169.34
2022-11-19T17:44:49.458Z,100168.14
2022-11-19T17:47:25.704Z,100168.11
2022-11-19T17:49:58.196Z,100168.70
2022-11-19T17:52:31.887Z,100171.31
2022-11-19T17:55:18.059Z,100166.46
2022-11-19T17:57:49.942Z,100166.10
2022-11-19T18:00:22.879Z,100168.52
2022-11-19T18:02:57.839Z,100170.61
2022-11-19T18:05:37.937Z,100169.26
2022-11-19T18:08:10.634Z,100168.33
2022-11-19T18:10:45.732Z,100165.55
2022-11-19T18:13:22.709Z,100170.27
2022-11-19T18:15:55.284Z,100177.70
2022-11-19T18:18:27.288Z,100178.65
2022-11-19T18:21:02.080Z,100179.86
2022-11-19T18:23:34.244Z,100186.67
2022-11-19T18:26:06.435Z,100189.54
2022-11-19T18:28:39.079Z,100183.39
2022-11-19T18:31:17.856Z,100180.27
2022-11-19T18:33:51.034Z,100183.77
2022-11-19T18:36:24.289Z,100186.59
2022-11-19T18:38:59.563Z,100184.30
2022-11-19T18:41:32.846Z,100191.39
2022-11-19T18:44:25.347Z,100190.27
2022-11-19T18:46:59.432Z,100191.87
2022-11-19T18:49:34.367Z,100193.17
2022-11-19T18:52:09.774Z,100189.64
2022-11-19T18:54:42.165Z,100195.73
2022-11-19T18:57:14.938Z,100189.19
2022-11-19T18:59:48.829Z,100193.19
2022-11-19T19:02:21.873Z,100193.45
2022-11-19T19:04:53.935Z,100195.12
2022-11-19T19:07:27.330Z,100193.66
2022-11-19T19:10:00.289Z,100190.40
2022-11-19T19:12:33.367Z,100192.92
2022-11-19T19:15:06.130Z,100190.04
2022-11-19T19:17:38.046Z,100188.81
2022-11-19T19:20:14.823Z,100190.04
2022-11-19T19:22:46.900Z,100193.44
2022-11-19T19:25:19.763Z,100199.48
2022-11-19T19:27:51.969Z,100201.09
2022-11-19T19:30:23.961Z,100201.48
2022-11-19T19:32:56.067Z,100202.38
2022-11-19T19:35:28.239Z,100211.63
2022-11-19T19:37:59.999Z,100211.16
2022-11-19T19:40:32.229Z,100211.53
2022-11-19T19:43:06.392Z,100210.13
2022-11-19T19:45:38.478Z,100210.94
2022-11-19T19:48:11.857Z,100211.98
2022-11-19T19:50:52.427Z,100210.02
2022-11-19T19:53:24.400Z,100211.08
2022-11-19T19:56:04.987Z,100216.10
2022-11-19T19:58:38.506Z,100217.77
2022-11-19T20:01:13.184Z,100218.90
2022-11-19T20:03:50.393Z,100222.58
2022-11-19T20:06:26.500Z,100225.77
2022-11-19T20:09:04.242Z,100223.91
2022-11-19T20:11:40.216Z,100224.85
2022-11-19T20:14:13.738Z,100224.03
2022-11-19T20:16:45.899Z,100224.60
2022-11-19T20:19:18.037Z,100211.66
2022-11-19T20:21:52.472Z,100224.99
2022-11-19T20:24:25.642Z,100229.04
2022-11-19T20:26:59.439Z,100215.21
2022-11-19T20:29:32.583Z,100233.70
2022-11-19T20:32:05.996Z,100234.42
2022-11-19T20:34:38.808Z,100240.38
2022-11-19T20:37:11.834Z,100238.27
2022-11-19T20:39:43.867Z,100238.48
2022-11-19T20:42:33.732Z,100237.43
2022-11-19T20:45:09.775Z,100237.92
2022-11-19T20:47:42.932Z,100236.85
2022-11-19T20:50:15.295Z,100236.70
2022-11-19T20:52:48.781Z,100232.63
2022-11-19T20:55:20.809Z,100236.85
2022-11-19T20:57:53.464Z,100228.98
2022-11-19T21:00:26.239Z,100228.55
2022-11-19T21:02:58.426Z,100224.87
2022-11-19T21:05:31.990Z,100224.89
2022-11-19T21:08:05.396Z,100226.08
2022-11-19T21:10:37.762Z,100227.36
2022-11-19T21:13:09.860Z,100215.42
2022-11-19T21:15:41.991Z,100228.77
2022-11-19T21:18:15.251Z,100232.00
2022-11-19T21:20:47.513Z,100228.64
2022-11-19T21:23:21.222Z,100226.05
2022-11-19T21:25:54.081Z,100228.98
2022-11-19T21:28:26.415Z,100227.70
2022-11-19T21:31:00.781Z,100224.30
2022-11-19T21:33:34.001Z,100225.46
2022-11-19T21:36:08.900Z,100223.48
2022-11-19T21:38:42.748Z,100223.83
2022-11-19T21:41:15.042Z,100224.17
2022-11-19T21:43:47.236Z,100223.17
2022-11-19T21:46:20.981Z,100225.83
2022-11-19T21:48:53.087Z,100227.39
2022-11-19T21:51:26.458Z,100227.42
2022-11-19T21:53:59.837Z,100208.23
2022-11-19T21:56:38.231Z,100228.54
2022-11-19T21:59:13.420Z,100226.60
2022-11-19T22:01:53.293Z,100227.42
2022-11-19T22:04:26.831Z,100213.36
2022-11-19T22:06:59.170Z,100226.65
2022-11-19T22:09:33.079Z,100224.81
2022-11-19T22:12:05.631Z,100222.80
2022-11-19T22:14:37.947Z,100224.09
2022-11-19T22:17:10.168Z,100224.34
2022-11-19T22:19:42.117Z,100223.14
2022-11-19T22:22:14.775Z,100228.04
2022-11-19T22:24:46.809Z,100218.69
2022-11-19T22:27:22.022Z,100223.10
2022-11-19T22:29:56.523Z,100225.41
2022-11-19T22:32:31.336Z,100227.30
2022-11-19T22:35:03.410Z,100227.69
2022-11-19T22:37:37.114Z,100225.18
2022-11-19T22:40:13.341Z,100230.07
2022-11-19T22:42:45.887Z,100228.05
2022-11-19T22:45:18.457Z,100227.61
2022-11-19T22:47:50.318Z,100232.58
2022-11-19T22:50:22.253Z,100233.97
2022-11-19T22:52:55.015Z,100235.65
2022-11-19T22:55:26.775Z,100228.00
2022-11-19T22:57:59.175Z,100229.92
2022-11-19T23:00:47.181Z,100229.33
2022-11-19T23:03:20.815Z,100226.10
2022-11-19T23:05:55.040Z,100222.61
2022-11-19T23:08:28.484Z,100221.95
2022-11-19T23:11:03.361Z,100217.54
2022-11-19T23:13:40.729Z,100218.62
2022-11-19T23:16:16.624Z,100204.96
2022-11-19T23:18:52.471Z,100216.77
2022-11-19T23:21:28.932Z,100198.06
2022-11-19T23:24:01.220Z,100211.80
2022-11-19T23:26:35.900Z,100209.95
2022-11-19T23:29:09.326Z,100214.04
2022-11-19T23:31:42.823Z,100210.56
2022-11-19T23:34:15.066Z,100206.50
2022-11-19T23:36:48.347Z,100206.96
2022-11-19T23:39:21.643Z,100209.55
2022-11-19T23:41:55.402Z,100210.38
2022-11-19T23:44:27.484Z,100211.42
2022-11-19T23:46:59.193Z,100208.34
2022-11-19T23:49:31.062Z,100209.15
2022-11-19T23:52:02.961Z,100208.44
2022-11-19T23:54:34.802Z,100208.89
2022-11-19T23:57:06.605Z,100205.69
2022-11-19T23:59:39.639Z,100205.92
